createdAt,value
2019-05-26T00:00:55.050Z,17.34
2019-05-26T00:03:24.613Z,17.26
2019-05-26T00:05:54.043Z,17.16
2019-05-26T00:08:23.557Z,17.15
2019-05-26T00:10:53.103Z,17.10
2019-05-26T00:13:22.778Z,17.02
2019-05-26T00:15:52.233Z,16.99
2019-05-26T00:18:21.663Z,16.94
2019-05-26T00:20:51.286Z,16.88
2019-05-26T00:23:20.724Z,16.92
2019-05-26T00:25:50.204Z,16.88
2019-05-26T00:28:19.675Z,16.77
2019-05-26T00:30:49.132Z,16.79
2019-05-26T00:33:18.756Z,16.79
2019-05-26T00:35:48.212Z,16.82
2019-05-26T00:38:17.657Z,16.77
2019-05-26T00:40:47.311Z,16.70
2019-05-26T00:43:16.833Z,16.68
2019-05-26T00:45:46.404Z,16.68
2019-05-26T00:48:15.832Z,16.62
2019-05-26T00:50:45.402Z,16.64
2019-05-26T00:53:14.908Z,16.67
2019-05-26T00:55:44.360Z,16.70
2019-05-26T00:58:13.806Z,16.69
2019-05-26T01:00:43.687Z,16.63
2019-05-26T01:03:13.143Z,16.50
2019-05-26T01:05:42.734Z,16.47
2019-05-26T01:08:12.356Z,16.40
2019-05-26T01:10:41.854Z,16.32
2019-05-26T01:13:11.305Z,16.24
2019-05-26T01:15:40.865Z,16.18
2019-05-26T01:18:10.335Z,16.11
2019-05-26T01:20:39.850Z,16.04
2019-05-26T01:23:09.350Z,16.01
2019-05-26T01:25:38.784Z,15.96
2019-05-26T01:28:08.237Z,15.88
2019-05-26T01:30:38.699Z,15.88
2019-05-26T01:33:08.133Z,15.85
2019-05-26T01:35:39.535Z,15.80
2019-05-26T01:38:22.322Z,15.76
2019-05-26T01:40:41.665Z,15.71
2019-05-26T01:43:11.122Z,15.64
2019-05-26T01:45:40.574Z,15.59
2019-05-26T01:48:10.027Z,15.54
2019-05-26T01:50:39.457Z,15.51
2019-05-26T01:53:08.885Z,15.45
2019-05-26T01:55:38.330Z,15.45
2019-05-26T01:58:07.764Z,15.45
2019-05-26T02:00:37.219Z,15.44
2019-05-26T02:03:06.635Z,15.46
2019-05-26T02:05:36.242Z,15.45
2019-05-26T02:08:05.823Z,15.49
2019-05-26T02:10:35.248Z,15.51
2019-05-26T02:13:04.721Z,15.52
2019-05-26T02:15:34.142Z,15.59
2019-05-26T02:18:03.601Z,15.57
2019-05-26T02:20:33.017Z,15.58
2019-05-26T02:23:02.458Z,15.64
2019-05-26T02:25:31.882Z,15.68
2019-05-26T02:28:01.328Z,15.68
2019-05-26T02:30:30.793Z,15.67
2019-05-26T02:33:00.306Z,15.65
2019-05-26T02:35:29.736Z,15.66
2019-05-26T02:37:59.155Z,15.64
2019-05-26T02:40:28.606Z,15.59
2019-05-26T02:42:58.047Z,15.50
2019-05-26T02:45:27.461Z,15.54
2019-05-26T02:47:56.914Z,15.53
2019-05-26T02:50:26.344Z,15.55
2019-05-26T02:52:55.920Z,15.56
2019-05-26T02:55:25.465Z,15.54
2019-05-26T02:57:55.079Z,15.48
2019-05-26T03:00:44.613Z,15.49
2019-05-26T03:03:14.964Z,15.52
2019-05-26T03:05:45.543Z,15.53
2019-05-26T03:08:15.206Z,15.61
2019-05-26T03:10:44.828Z,15.63
2019-05-26T03:13:17.818Z,15.69
2019-05-26T03:15:48.785Z,15.74
2019-05-26T03:18:18.786Z,15.80
2019-05-26T03:20:48.225Z,15.90
2019-05-26T03:23:17.747Z,16.04
2019-05-26T03:25:47.176Z,16.20
2019-05-26T03:28:16.612Z,16.41
2019-05-26T03:30:46.034Z,16.57
2019-05-26T03:33:15.519Z,16.70
2019-05-26T03:35:44.953Z,16.80
2019-05-26T03:38:14.386Z,16.92
2019-05-26T03:40:43.806Z,17.06
2019-05-26T03:43:13.262Z,17.13
2019-05-26T03:46:20.170Z,17.24
2019-05-26T03:48:50.178Z,17.39
2019-05-26T03:51:19.713Z,17.57
2019-05-26T03:53:49.138Z,17.78
2019-05-26T03:56:18.575Z,17.93
2019-05-26T03:58:48.052Z,18.08
2019-05-26T04:01:17.457Z,18.29
2019-05-26T04:03:46.895Z,18.48
2019-05-26T04:06:16.313Z,18.72
2019-05-26T04:08:45.868Z,18.99
2019-05-26T04:11:15.252Z,19.53
2019-05-26T04:13:44.737Z,20.10
2019-05-26T04:16:14.275Z,21.17
2019-05-26T04:18:43.744Z,24.09
2019-05-26T04:21:13.282Z,26.51
2019-05-26T04:23:42.708Z,28.60
2019-05-26T04:26:12.167Z,30.31
2019-05-26T04:28:41.579Z,31.59
2019-05-26T04:31:11.005Z,32.17
2019-05-26T04:33:40.445Z,32.86
2019-05-26T04:36:09.869Z,33.46
2019-05-26T04:38:39.318Z,34.11
2019-05-26T04:41:08.747Z,34.83
2019-05-26T04:43:38.150Z,35.25
2019-05-26T04:46:07.637Z,35.85
2019-05-26T04:48:37.056Z,36.11
2019-05-26T04:51:06.466Z,35.82
2019-05-26T04:53:36.114Z,35.27
2019-05-26T04:56:05.524Z,35.35
2019-05-26T04:58:34.988Z,35.60
2019-05-26T05:01:04.414Z,35.74
2019-05-26T05:03:33.828Z,35.95
2019-05-26T05:06:03.250Z,36.12
2019-05-26T05:08:32.687Z,36.94
2019-05-26T05:11:02.266Z,36.94
2019-05-26T05:13:31.675Z,37.77
2019-05-26T05:16:01.140Z,38.49
2019-05-26T05:18:30.581Z,38.68
2019-05-26T05:20:59.999Z,38.65
2019-05-26T05:23:29.439Z,37.90
2019-05-26T05:25:58.874Z,38.29
2019-05-26T05:28:28.504Z,38.15
2019-05-26T05:30:58.196Z,38.83
2019-05-26T05:33:27.669Z,39.42
2019-05-26T05:35:57.218Z,39.10
2019-05-26T05:38:26.659Z,39.13
2019-05-26T05:40:59.796Z,38.77
2019-05-26T05:43:27.233Z,38.60
2019-05-26T05:45:56.813Z,39.03
2019-05-26T05:48:30.454Z,38.97
2019-05-26T05:50:59.961Z,39.08
2019-05-26T05:53:29.450Z,38.01
2019-05-26T05:55:58.917Z,37.68
2019-05-26T05:58:28.473Z,37.23
2019-05-26T06:00:57.891Z,36.85
2019-05-26T06:03:27.406Z,36.69
2019-05-26T06:05:56.948Z,37.03
2019-05-26T06:08:26.404Z,37.44
2019-05-26T06:10:55.991Z,37.86
2019-05-26T06:13:25.465Z,37.83
2019-05-26T06:15:54.888Z,38.69
2019-05-26T06:18:24.360Z,38.57
2019-05-26T06:20:53.918Z,39.23
2019-05-26T06:23:23.580Z,39.75
2019-05-26T06:25:53.017Z,38.49
2019-05-26T06:28:22.546Z,36.79
2019-05-26T06:30:51.983Z,35.32
2019-05-26T06:33:21.573Z,34.09
2019-05-26T06:35:51.208Z,33.56
2019-05-26T06:38:20.678Z,32.95
2019-05-26T06:40:50.225Z,32.51
2019-05-26T06:43:19.768Z,32.11
2019-05-26T06:45:49.337Z,32.02
2019-05-26T06:48:18.744Z,31.34
2019-05-26T06:50:48.221Z,30.65
2019-05-26T06:53:17.760Z,30.33
2019-05-26T06:55:47.184Z,30.44
2019-05-26T06:58:16.722Z,30.58
2019-05-26T07:00:46.262Z,30.96
2019-05-26T07:03:15.715Z,31.68
2019-05-26T07:05:45.205Z,32.98
2019-05-26T07:08:14.625Z,34.63
2019-05-26T07:10:44.153Z,36.03
2019-05-26T07:13:13.620Z,37.15
2019-05-26T07:15:43.084Z,37.88
2019-05-26T07:18:12.590Z,37.33
2019-05-26T07:20:42.276Z,37.61
2019-05-26T07:23:11.793Z,37.65
2019-05-26T07:25:41.525Z,38.01
2019-05-26T07:28:10.992Z,36.74
2019-05-26T07:30:40.489Z,35.69
2019-05-26T07:33:10.154Z,35.63
2019-05-26T07:35:39.718Z,34.93
2019-05-26T07:38:09.229Z,33.86
2019-05-26T07:40:38.734Z,33.08
2019-05-26T07:43:08.172Z,32.70
2019-05-26T07:45:37.612Z,32.50
2019-05-26T07:48:07.062Z,31.82
2019-05-26T07:50:36.508Z,31.82
2019-05-26T07:53:05.953Z,31.47
2019-05-26T07:55:35.470Z,31.41
2019-05-26T07:58:04.930Z,31.54
2019-05-26T08:00:34.364Z,32.16
2019-05-26T08:03:03.794Z,32.74
2019-05-26T08:05:33.245Z,32.91
2019-05-26T08:08:12.187Z,32.34
2019-05-26T08:10:33.842Z,31.84
2019-05-26T08:13:03.249Z,31.70
2019-05-26T08:15:32.746Z,31.58
2019-05-26T08:18:02.167Z,31.79
2019-05-26T08:20:31.582Z,32.78
2019-05-26T08:23:01.023Z,32.78
2019-05-26T08:25:30.464Z,32.56
2019-05-26T08:27:59.916Z,32.27
2019-05-26T08:30:29.333Z,31.77
2019-05-26T08:32:58.787Z,31.84
2019-05-26T08:35:28.213Z,31.25
2019-05-26T08:37:57.713Z,30.70
2019-05-26T08:40:27.120Z,30.64
2019-05-26T08:42:56.556Z,30.71
2019-05-26T08:45:26.070Z,30.64
2019-05-26T08:47:55.517Z,30.07
2019-05-26T08:50:24.952Z,29.25
2019-05-26T08:52:54.675Z,29.13
2019-05-26T08:55:24.128Z,29.26
2019-05-26T08:57:53.579Z,29.19
2019-05-26T09:00:23.027Z,29.37
2019-05-26T09:02:55.308Z,29.35
2019-05-26T09:05:24.751Z,29.40
2019-05-26T09:07:55.723Z,29.48
2019-05-26T09:10:25.171Z,29.64
2019-05-26T09:13:00.761Z,29.74
2019-05-26T09:15:25.743Z,29.69
2019-05-26T09:17:55.431Z,29.80
2019-05-26T09:20:24.873Z,30.00
2019-05-26T09:22:54.349Z,29.95
2019-05-26T09:25:23.815Z,30.12
2019-05-26T09:27:53.248Z,30.27
2019-05-26T09:30:22.674Z,30.16
2019-05-26T09:32:52.100Z,30.34
2019-05-26T09:35:21.569Z,30.61
2019-05-26T09:37:51.029Z,30.79
2019-05-26T09:40:20.637Z,30.73
2019-05-26T09:42:50.145Z,30.69
2019-05-26T09:45:19.568Z,30.74
2019-05-26T09:47:49.131Z,30.91
2019-05-26T09:50:18.579Z,31.15
2019-05-26T09:52:48.010Z,31.13
2019-05-26T09:55:17.517Z,31.44
2019-05-26T09:57:46.927Z,31.47
2019-05-26T10:00:16.591Z,31.03
2019-05-26T10:02:46.147Z,31.06
2019-05-26T10:05:15.792Z,31.36
2019-05-26T10:07:45.294Z,31.36
2019-05-26T10:10:14.925Z,31.75
2019-05-26T10:12:44.614Z,32.26
2019-05-26T10:15:14.035Z,32.51
2019-05-26T10:17:43.455Z,32.79
2019-05-26T10:20:13.056Z,32.79
2019-05-26T10:22:42.582Z,32.74
2019-05-26T10:25:12.240Z,32.56
2019-05-26T10:27:41.946Z,32.43
2019-05-26T10:30:11.668Z,32.95
2019-05-26T10:32:41.288Z,33.67
2019-05-26T10:35:11.308Z,33.89
2019-05-26T10:37:40.842Z,34.27
2019-05-26T10:40:11.805Z,34.62
2019-05-26T10:42:41.263Z,34.70
2019-05-26T10:45:10.727Z,34.49
2019-05-26T10:47:40.189Z,34.62
2019-05-26T10:50:09.634Z,35.29
2019-05-26T10:52:39.042Z,35.20
2019-05-26T10:55:08.497Z,35.64
2019-05-26T10:57:37.926Z,35.62
2019-05-26T11:00:07.496Z,36.24
2019-05-26T11:02:36.933Z,35.52
2019-05-26T11:05:06.407Z,34.55
2019-05-26T11:07:35.819Z,33.72
2019-05-26T11:10:05.478Z,32.67
2019-05-26T11:12:34.960Z,32.60
2019-05-26T11:15:04.479Z,32.19
2019-05-26T11:17:33.964Z,32.19
2019-05-26T11:20:03.483Z,33.22
2019-05-26T11:22:33.001Z,33.51
2019-05-26T11:25:02.481Z,33.44
2019-05-26T11:27:32.022Z,33.57
2019-05-26T11:30:01.502Z,34.16
2019-05-26T11:32:32.122Z,34.28
2019-05-26T11:35:02.357Z,33.80
2019-05-26T11:37:33.513Z,33.12
2019-05-26T11:40:02.957Z,32.96
2019-05-26T11:42:32.641Z,33.90
2019-05-26T11:45:02.226Z,35.12
2019-05-26T11:47:31.944Z,35.65
2019-05-26T11:50:01.447Z,35.75
2019-05-26T11:52:31.048Z,36.34
2019-05-26T11:55:00.602Z,36.94
2019-05-26T11:57:30.103Z,37.78
2019-05-26T11:59:59.532Z,37.85
2019-05-26T12:02:29.074Z,38.40
2019-05-26T12:04:58.597Z,38.14
2019-05-26T12:07:28.048Z,38.68
2019-05-26T12:09:57.702Z,38.89
2019-05-26T12:12:27.184Z,37.93
2019-05-26T12:14:56.665Z,37.50
2019-05-26T12:17:26.167Z,36.92
2019-05-26T12:19:55.611Z,36.59
2019-05-26T12:22:25.146Z,36.61
2019-05-26T12:24:54.808Z,36.64
2019-05-26T12:27:24.453Z,37.21
2019-05-26T12:29:53.912Z,36.65
2019-05-26T12:32:23.350Z,35.61
2019-05-26T12:34:52.866Z,35.30
2019-05-26T12:37:22.338Z,35.51
2019-05-26T12:39:51.842Z,35.90
2019-05-26T12:42:21.292Z,36.41
2019-05-26T12:44:50.761Z,36.43
2019-05-26T12:47:20.284Z,36.12
2019-05-26T12:49:49.864Z,35.61
2019-05-26T12:52:19.409Z,35.21
2019-05-26T12:54:48.867Z,35.37
2019-05-26T12:57:18.393Z,36.09
2019-05-26T12:59:47.877Z,36.50
2019-05-26T13:02:17.381Z,36.96
2019-05-26T13:04:46.899Z,37.14
2019-05-26T13:07:16.426Z,37.89
2019-05-26T13:09:45.930Z,37.60
2019-05-26T13:12:15.409Z,37.22
2019-05-26T13:14:44.901Z,38.20
2019-05-26T13:17:14.427Z,38.52
2019-05-26T13:19:43.870Z,38.29
2019-05-26T13:22:13.321Z,38.59
2019-05-26T13:24:42.754Z,39.06
2019-05-26T13:27:12.174Z,38.69
2019-05-26T13:29:41.693Z,38.69
2019-05-26T13:32:11.282Z,38.65
2019-05-26T13:34:40.789Z,38.44
2019-05-26T13:37:10.230Z,38.23
2019-05-26T13:39:39.851Z,37.92
2019-05-26T13:42:09.359Z,37.38
2019-05-26T13:44:38.911Z,37.14
2019-05-26T13:47:08.418Z,37.47
2019-05-26T13:49:37.976Z,37.34
2019-05-26T13:52:07.516Z,36.63
2019-05-26T13:54:36.935Z,36.03
2019-05-26T13:57:06.409Z,35.50
2019-05-26T13:59:35.822Z,35.03
2019-05-26T14:02:05.389Z,34.59
2019-05-26T14:04:34.791Z,34.38
2019-05-26T14:07:04.356Z,34.04
2019-05-26T14:09:33.879Z,33.69
2019-05-26T14:12:03.466Z,33.42
2019-05-26T14:14:32.870Z,33.02
2019-05-26T14:17:02.380Z,32.66
2019-05-26T14:19:32.043Z,32.15
2019-05-26T14:22:01.554Z,31.75
2019-05-26T14:24:31.085Z,31.71
2019-05-26T14:27:00.656Z,31.64
2019-05-26T14:29:30.195Z,31.48
2019-05-26T14:31:59.694Z,31.32
2019-05-26T14:34:29.131Z,31.06
2019-05-26T14:36:58.540Z,31.00
2019-05-26T14:39:27.966Z,30.92
2019-05-26T14:41:57.390Z,30.81
2019-05-26T14:44:26.846Z,30.63
2019-05-26T14:46:56.455Z,30.45
2019-05-26T14:49:25.976Z,30.50
2019-05-26T14:51:55.401Z,30.43
2019-05-26T14:54:24.840Z,30.38
2019-05-26T14:56:54.260Z,30.28
2019-05-26T14:59:23.732Z,30.09
2019-05-26T15:01:53.127Z,29.91
2019-05-26T15:04:22.543Z,29.70
2019-05-26T15:06:51.991Z,29.48
2019-05-26T15:09:25.175Z,29.46
2019-05-26T15:11:52.606Z,29.48
2019-05-26T15:14:22.046Z,29.34
2019-05-26T15:16:51.502Z,29.18
2019-05-26T15:19:21.014Z,29.23
2019-05-26T15:21:50.510Z,29.26
2019-05-26T15:24:20.005Z,29.23
2019-05-26T15:26:49.572Z,29.31
2019-05-26T15:29:18.996Z,29.37
2019-05-26T15:31:48.621Z,29.35
2019-05-26T15:34:18.119Z,29.20
2019-05-26T15:36:47.559Z,29.05
2019-05-26T15:39:17.006Z,28.89
2019-05-26T15:41:46.439Z,28.84
2019-05-26T15:44:15.864Z,28.70
2019-05-26T15:46:45.326Z,28.39
2019-05-26T15:49:14.854Z,28.26
2019-05-26T15:51:44.381Z,28.12
2019-05-26T15:54:13.802Z,27.96
2019-05-26T15:56:43.295Z,27.85
2019-05-26T15:59:12.978Z,27.77
2019-05-26T16:01:42.694Z,27.62
2019-05-26T16:04:12.291Z,27.53
2019-05-26T16:06:41.776Z,27.38
2019-05-26T16:09:11.233Z,27.30
2019-05-26T16:11:43.404Z,27.23
2019-05-26T16:14:11.911Z,27.12
2019-05-26T16:16:42.060Z,27.00
2019-05-26T16:19:11.677Z,26.93
2019-05-26T16:21:41.115Z,26.77
2019-05-26T16:24:10.716Z,26.65
2019-05-26T16:26:40.135Z,26.54
2019-05-26T16:29:09.643Z,26.40
2019-05-26T16:31:39.093Z,26.29
2019-05-26T16:34:08.630Z,26.16
2019-05-26T16:36:38.043Z,26.08
2019-05-26T16:39:08.151Z,25.99
2019-05-26T16:41:37.589Z,25.89
2019-05-26T16:44:07.138Z,25.74
2019-05-26T16:46:36.563Z,25.62
2019-05-26T16:49:06.252Z,25.52
2019-05-26T16:51:35.846Z,25.42
2019-05-26T16:54:05.351Z,25.37
2019-05-26T16:56:35.010Z,25.28
2019-05-26T16:59:04.427Z,25.20
2019-05-26T17:01:33.873Z,25.13
2019-05-26T17:04:03.306Z,25.04
2019-05-26T17:06:32.748Z,24.97
2019-05-26T17:09:02.164Z,24.88
2019-05-26T17:11:31.629Z,24.81
2019-05-26T17:14:01.059Z,24.75
2019-05-26T17:16:30.490Z,24.65
2019-05-26T17:18:59.968Z,24.56
2019-05-26T17:21:29.410Z,24.47
2019-05-26T17:23:58.906Z,24.38
2019-05-26T17:26:28.564Z,24.28
2019-05-26T17:28:58.029Z,24.17
2019-05-26T17:31:27.625Z,24.05
2019-05-26T17:33:57.209Z,23.94
2019-05-26T17:36:26.679Z,23.83
2019-05-26T17:38:56.111Z,23.71
2019-05-26T17:41:25.591Z,23.58
2019-05-26T17:43:55.154Z,23.47
2019-05-26T17:46:24.587Z,23.35
2019-05-26T17:48:54.005Z,23.23
2019-05-26T17:51:23.482Z,23.11
2019-05-26T17:53:52.978Z,22.99
2019-05-26T17:56:22.474Z,22.89
2019-05-26T17:58:51.900Z,22.76
2019-05-26T18:01:21.487Z,22.64
2019-05-26T18:03:51.038Z,22.49
2019-05-26T18:06:20.681Z,22.36
2019-05-26T18:08:50.134Z,22.23
2019-05-26T18:11:20.464Z,22.13
2019-05-26T18:13:49.904Z,22.04
2019-05-26T18:16:19.434Z,21.96
2019-05-26T18:18:48.909Z,21.86
2019-05-26T18:21:18.518Z,21.77
2019-05-26T18:23:48.157Z,21.67
2019-05-26T18:26:17.604Z,21.57
2019-05-26T18:28:47.083Z,21.49
2019-05-26T18:31:16.520Z,21.42
2019-05-26T18:33:46.002Z,21.36
2019-05-26T18:36:15.455Z,21.29
2019-05-26T18:38:44.910Z,21.27
2019-05-26T18:41:14.477Z,21.23
2019-05-26T18:43:44.075Z,21.19
2019-05-26T18:46:13.492Z,21.14
2019-05-26T18:48:42.936Z,21.09
2019-05-26T18:51:12.406Z,21.04
2019-05-26T18:53:41.845Z,20.98
2019-05-26T18:56:11.284Z,20.93
2019-05-26T18:58:40.837Z,20.87
2019-05-26T19:01:10.333Z,20.84
2019-05-26T19:03:39.908Z,20.76
2019-05-26T19:06:09.517Z,20.70
2019-05-26T19:08:38.979Z,20.65
2019-05-26T19:11:08.429Z,20.62
2019-05-26T19:13:37.914Z,20.58
2019-05-26T19:16:10.211Z,20.55
2019-05-26T19:18:40.951Z,20.51
2019-05-26T19:21:10.404Z,20.43
2019-05-26T19:23:41.271Z,20.38
2019-05-26T19:26:10.712Z,20.35
2019-05-26T19:28:41.618Z,20.32
2019-05-26T19:31:11.136Z,20.28
2019-05-26T19:33:44.274Z,20.24
2019-05-26T19:36:13.807Z,20.17
2019-05-26T19:38:43.307Z,20.11
2019-05-26T19:41:12.898Z,20.05
2019-05-26T19:43:42.605Z,19.99
2019-05-26T19:46:12.161Z,19.95
2019-05-26T19:48:41.723Z,19.90
2019-05-26T19:51:11.186Z,19.86
2019-05-26T19:53:40.714Z,19.78
2019-05-26T19:56:10.183Z,19.74
2019-05-26T19:58:39.675Z,19.67
2019-05-26T20:01:09.121Z,19.62
2019-05-26T20:03:38.565Z,19.57
2019-05-26T20:06:08.111Z,19.53
2019-05-26T20:08:37.556Z,19.46
2019-05-26T20:11:06.986Z,19.36
2019-05-26T20:13:36.476Z,19.31
2019-05-26T20:16:05.926Z,19.29
2019-05-26T20:18:35.520Z,19.23
2019-05-26T20:21:05.046Z,19.19
2019-05-26T20:23:34.486Z,19.12
2019-05-26T20:26:03.949Z,19.10
2019-05-26T20:28:33.392Z,19.10
2019-05-26T20:31:02.917Z,19.12
2019-05-26T20:33:32.539Z,19.13
2019-05-26T20:36:01.979Z,19.08
2019-05-26T20:38:31.432Z,19.07
2019-05-26T20:41:00.868Z,18.99
2019-05-26T20:43:30.425Z,18.95
2019-05-26T20:45:59.858Z,18.84
2019-05-26T20:48:29.342Z,18.84
2019-05-26T20:50:58.890Z,18.78
2019-05-26T20:53:28.354Z,18.71
2019-05-26T20:55:57.785Z,18.65
2019-05-26T20:58:27.271Z,18.59
2019-05-26T21:00:56.784Z,18.53
2019-05-26T21:03:26.289Z,18.46
2019-05-26T21:05:55.748Z,18.37
2019-05-26T21:08:25.237Z,18.27
2019-05-26T21:10:54.773Z,18.23
2019-05-26T21:13:24.487Z,18.21
2019-05-26T21:15:54.198Z,18.16
2019-05-26T21:18:23.622Z,18.14
2019-05-26T21:20:53.309Z,18.08
2019-05-26T21:23:22.999Z,18.05
2019-05-26T21:25:52.475Z,18.01
2019-05-26T21:28:21.993Z,18.03
2019-05-26T21:30:51.421Z,18.04
2019-05-26T21:33:20.841Z,18.01
2019-05-26T21:35:50.293Z,18.02
2019-05-26T21:38:19.798Z,18.00
2019-05-26T21:40:49.232Z,18.00
2019-05-26T21:43:18.698Z,17.93
2019-05-26T21:45:48.252Z,17.90
2019-05-26T21:48:17.753Z,17.88
2019-05-26T21:50:47.245Z,17.83
2019-05-26T21:53:16.679Z,17.83
2019-05-26T21:55:46.169Z,17.80
2019-05-26T21:58:15.645Z,17.77
2019-05-26T22:00:46.206Z,17.69
2019-05-26T22:03:15.632Z,17.60
2019-05-26T22:05:45.047Z,17.64
2019-05-26T22:08:14.537Z,17.62
2019-05-26T22:10:44.092Z,17.59
2019-05-26T22:13:13.659Z,17.58
2019-05-26T22:15:43.112Z,17.52
2019-05-26T22:18:12.607Z,17.49
2019-05-26T22:20:42.108Z,17.48
2019-05-26T22:23:11.620Z,17.45
2019-05-26T22:25:41.160Z,17.51
2019-05-26T22:28:10.607Z,17.52
2019-05-26T22:30:40.082Z,17.57
2019-05-26T22:33:09.522Z,17.57
2019-05-26T22:35:38.966Z,17.54
2019-05-26T22:38:08.395Z,17.48
2019-05-26T22:40:38.082Z,17.48
2019-05-26T22:43:07.555Z,17.45
2019-05-26T22:45:37.047Z,17.43
